createdAt,value
2019-02-26T00:03:46.260Z,61.10
2019-02-26T00:08:38.949Z,82.43
2019-02-26T00:13:31.920Z,111.73
2019-02-26T00:18:25.476Z,61.93
2019-02-26T00:23:19.807Z,71.27
2019-02-26T00:28:13.166Z,67.90
2019-02-26T00:33:06.021Z,64.23
2019-02-26T00:37:58.741Z,32.67
2019-02-26T00:42:54.387Z,44.63
2019-02-26T00:47:46.220Z,123.93
2019-02-26T00:52:39.230Z,97.23
2019-02-26T00:57:33.523Z,32.93
2019-02-26T01:02:25.436Z,40.80
2019-02-26T01:07:19.185Z,105.83
2019-02-26T01:12:13.805Z,112.80
2019-02-26T01:17:08.165Z,64.50
2019-02-26T01:22:00.145Z,35.33
2019-02-26T01:26:52.814Z,44.07
2019-02-26T01:31:45.671Z,31.60
2019-02-26T01:36:38.658Z,24.03
2019-02-26T01:41:31.945Z,18.90
2019-02-26T01:46:24.348Z,17.70
2019-02-26T01:51:19.233Z,17.70
2019-02-26T01:56:11.090Z,25.13
2019-02-26T02:01:03.700Z,15.13
2019-02-26T02:05:56.425Z,19.37
2019-02-26T02:10:49.616Z,15.00
2019-02-26T02:15:44.427Z,21.73
2019-02-26T02:20:37.265Z,14.93
2019-02-26T02:25:33.238Z,17.57
2019-02-26T02:30:30.397Z,13.53
2019-02-26T02:35:19.324Z,17.30
2019-02-26T02:40:13.350Z,14.77
2019-02-26T02:45:11.349Z,16.63
2019-02-26T02:50:03.155Z,13.73
2019-02-26T02:54:56.341Z,16.97
2019-02-26T02:59:48.789Z,16.60
2019-02-26T03:04:41.011Z,16.97
2019-02-26T03:09:37.086Z,22.03
2019-02-26T03:14:27.381Z,15.93
2019-02-26T03:19:20.004Z,13.87
2019-02-26T03:24:12.233Z,14.83
2019-02-26T03:29:04.730Z,14.23
2019-02-26T03:34:04.154Z,15.30
2019-02-26T03:38:53.753Z,15.57
2019-02-26T03:43:45.263Z,16.97
2019-02-26T03:48:37.713Z,19.00
2019-02-26T03:53:31.362Z,14.90
2019-02-26T03:58:24.694Z,20.63
2019-02-26T04:03:17.636Z,20.97
2019-02-26T04:08:10.241Z,13.20
2019-02-26T04:13:02.608Z,12.93
2019-02-26T04:17:55.299Z,14.77
2019-02-26T04:22:49.900Z,10.83
2019-02-26T04:27:51.025Z,13.67
2019-02-26T04:32:55.553Z,15.43
2019-02-26T04:38:07.309Z,12.83
2019-02-26T04:43:12.915Z,14.53
2019-02-26T04:48:08.517Z,14.87
2019-02-26T04:53:04.432Z,11.13
2019-02-26T04:57:57.370Z,12.67
2019-02-26T05:02:49.589Z,12.47
2019-02-26T05:07:44.464Z,11.43
2019-02-26T05:12:37.904Z,13.57
2019-02-26T05:17:33.269Z,14.40
2019-02-26T05:22:25.747Z,14.50
2019-02-26T05:27:22.027Z,13.87
2019-02-26T05:32:13.035Z,61.37
2019-02-26T05:37:07.879Z,21.00
2019-02-26T05:42:01.247Z,15.37
2019-02-26T05:46:56.109Z,18.17
2019-02-26T05:51:47.201Z,20.00
2019-02-26T05:56:41.308Z,14.43
2019-02-26T06:01:33.921Z,19.13
2019-02-26T06:06:26.489Z,19.17
2019-02-26T06:11:18.861Z,20.13
2019-02-26T06:16:11.117Z,26.50
2019-02-26T06:21:03.698Z,19.83
2019-02-26T06:25:58.232Z,20.03
2019-02-26T06:30:49.875Z,25.90
2019-02-26T06:35:42.839Z,32.80
2019-02-26T06:40:37.004Z,19.60
2019-02-26T06:45:29.509Z,21.33
2019-02-26T06:50:22.030Z,24.37
2019-02-26T06:55:14.510Z,22.27
2019-02-26T07:00:12.671Z,27.07
2019-02-26T07:05:11.422Z,23.83
2019-02-26T07:10:05.006Z,18.77
2019-02-26T07:14:58.208Z,14.37
2019-02-26T07:19:52.666Z,19.23
2019-02-26T07:24:46.381Z,14.30
2019-02-26T07:29:40.149Z,23.53
2019-02-26T07:34:32.381Z,24.93
2019-02-26T07:39:24.728Z,26.70
2019-02-26T07:44:18.735Z,25.87
2019-02-26T07:49:11.049Z,23.35
2019-02-26T07:54:03.472Z,23.32
2019-02-26T07:58:59.034Z,20.17
2019-02-26T08:03:51.410Z,20.20
2019-02-26T08:08:44.884Z,24.27
2019-02-26T08:13:37.793Z,26.50
2019-02-26T08:18:30.204Z,27.80
2019-02-26T08:23:23.892Z,26.55
2019-02-26T08:28:18.516Z,25.48
2019-02-26T08:33:10.769Z,24.27
2019-02-26T08:38:06.227Z,23.02
2019-02-26T08:42:58.287Z,31.48
2019-02-26T08:47:50.777Z,41.00
2019-02-26T08:52:44.904Z,29.75
2019-02-26T08:57:37.716Z,28.12
2019-02-26T09:02:30.343Z,28.32
2019-02-26T09:07:23.721Z,21.93
2019-02-26T09:12:17.512Z,23.85
2019-02-26T09:17:10.752Z,22.95
2019-02-26T09:22:03.356Z,23.32
2019-02-26T09:26:57.490Z,28.30
2019-02-26T09:31:49.783Z,26.65
2019-02-26T09:36:42.313Z,26.97
2019-02-26T09:41:35.631Z,24.10
2019-02-26T09:46:31.195Z,22.87
2019-02-26T09:51:22.793Z,19.82
2019-02-26T09:56:15.377Z,20.12
2019-02-26T10:01:09.100Z,16.97
2019-02-26T10:06:02.058Z,25.00
2019-02-26T10:10:56.824Z,18.25
2019-02-26T10:15:48.754Z,17.40
2019-02-26T10:20:43.351Z,22.62
2019-02-26T10:25:38.737Z,18.85
2019-02-26T10:30:31.447Z,14.18
2019-02-26T10:35:32.507Z,11.40
2019-02-26T10:40:19.525Z,10.93
2019-02-26T10:45:17.828Z,12.47
2019-02-26T10:50:16.162Z,12.03
2019-02-26T10:55:12.827Z,9.70
2019-02-26T11:00:05.702Z,10.95
2019-02-26T11:04:56.932Z,8.18
2019-02-26T11:09:51.089Z,7.92
2019-02-26T11:14:44.314Z,5.55
2019-02-26T11:19:38.869Z,5.20
2019-02-26T11:24:31.604Z,4.92
2019-02-26T11:29:26.152Z,4.33
2019-02-26T11:34:18.327Z,3.65
2019-02-26T11:39:12.086Z,4.22
2019-02-26T11:44:09.985Z,2.40
2019-02-26T11:48:58.590Z,4.15
2019-02-26T11:53:51.136Z,3.50
2019-02-26T11:58:43.641Z,6.15
2019-02-26T12:03:38.739Z,5.97
2019-02-26T12:08:30.001Z,2.85
2019-02-26T12:13:24.999Z,4.95
2019-02-26T12:18:17.910Z,3.62
2019-02-26T12:23:11.654Z,3.12
2019-02-26T12:28:05.411Z,5.92
2019-02-26T12:32:58.649Z,4.62
2019-02-26T12:37:53.873Z,4.45
2019-02-26T12:42:45.929Z,4.45
2019-02-26T12:47:40.707Z,5.47
2019-02-26T12:52:32.700Z,4.30
2019-02-26T12:57:26.955Z,4.33
2019-02-26T13:02:20.627Z,5.45
2019-02-26T13:07:13.205Z,5.70
2019-02-26T13:12:05.786Z,4.20
2019-02-26T13:17:00.030Z,10.93
2019-02-26T13:21:56.265Z,5.55
2019-02-26T13:26:48.833Z,6.83
2019-02-26T13:31:44.822Z,4.15
2019-02-26T13:36:36.243Z,4.87
2019-02-26T13:41:30.187Z,4.12
2019-02-26T13:46:22.361Z,4.17
2019-02-26T13:51:14.577Z,3.55
2019-02-26T13:56:07.297Z,4.03
2019-02-26T14:00:59.659Z,3.92
2019-02-26T14:05:52.044Z,3.35
2019-02-26T14:10:44.341Z,2.83
2019-02-26T14:15:36.849Z,4.55
2019-02-26T14:20:29.762Z,2.17
2019-02-26T14:25:22.370Z,4.25
2019-02-26T14:30:16.480Z,4.08
2019-02-26T14:35:10.846Z,2.52
2019-02-26T14:40:04.104Z,4.00
2019-02-26T14:44:57.093Z,3.72
2019-02-26T14:49:49.783Z,4.72
2019-02-26T14:54:42.314Z,2.65
2019-02-26T14:59:34.977Z,2.60
2019-02-26T15:04:27.724Z,2.70
2019-02-26T15:09:20.289Z,9.13
2019-02-26T15:14:13.207Z,2.40
2019-02-26T15:19:05.770Z,8.13
2019-02-26T15:23:58.809Z,5.95
2019-02-26T15:28:51.581Z,3.08
2019-02-26T15:33:44.448Z,2.22
2019-02-26T15:38:37.244Z,4.78
2019-02-26T15:43:29.961Z,7.80
2019-02-26T15:48:22.660Z,5.33
2019-02-26T15:53:14.918Z,7.33
2019-02-26T15:58:08.021Z,8.53
2019-02-26T16:03:00.421Z,3.75
2019-02-26T16:07:53.037Z,8.73
2019-02-26T16:12:46.221Z,6.55
2019-02-26T16:17:38.822Z,4.40
2019-02-26T16:22:31.274Z,6.47
2019-02-26T16:27:24.076Z,3.95
2019-02-26T16:32:16.713Z,4.37
2019-02-26T16:37:09.213Z,8.98
2019-02-26T16:42:02.231Z,27.82
2019-02-26T16:46:54.549Z,33.80
2019-02-26T16:51:48.214Z,24.98
2019-02-26T16:56:41.380Z,28.27
2019-02-26T17:01:33.741Z,32.17
2019-02-26T17:06:26.017Z,35.38
2019-02-26T17:11:18.768Z,25.72
2019-02-26T17:16:11.333Z,27.58
2019-02-26T17:21:04.162Z,9.50
2019-02-26T17:26:00.200Z,20.57
2019-02-26T17:30:50.489Z,21.60
2019-02-26T17:35:42.842Z,27.30
2019-02-26T17:40:36.731Z,15.90
2019-02-26T17:45:31.566Z,15.18
2019-02-26T17:50:32.593Z,31.12
2019-02-26T17:55:25.209Z,39.08
2019-02-26T18:00:22.097Z,37.13
2019-02-26T18:05:14.257Z,44.75
2019-02-26T18:10:12.729Z,45.90
2019-02-26T18:15:03.214Z,49.13
2019-02-26T18:19:55.585Z,62.38
2019-02-26T18:24:47.759Z,81.70
2019-02-26T18:29:39.933Z,62.38
2019-02-26T18:34:32.609Z,72.53
2019-02-26T18:39:25.321Z,57.40
2019-02-26T18:44:20.701Z,34.88
2019-02-26T18:49:12.076Z,25.30
2019-02-26T18:54:04.717Z,18.73
2019-02-26T18:58:57.261Z,14.35
2019-02-26T19:03:49.884Z,11.45
2019-02-26T19:08:42.620Z,14.53
2019-02-26T19:13:35.616Z,11.53
2019-02-26T19:18:28.963Z,17.63
2019-02-26T19:23:21.717Z,29.87
2019-02-26T19:28:15.335Z,14.50
2019-02-26T19:33:08.117Z,13.33
2019-02-26T19:38:01.856Z,15.70
2019-02-26T19:42:54.656Z,11.90
2019-02-26T19:47:46.926Z,30.13
2019-02-26T19:52:40.222Z,14.23
2019-02-26T19:57:32.413Z,13.10
2019-02-26T20:02:24.545Z,13.60
2019-02-26T20:07:17.850Z,5.30
2019-02-26T20:12:10.150Z,5.47
2019-02-26T20:17:13.755Z,10.90
2019-02-26T20:21:56.584Z,7.03
2019-02-26T20:26:49.986Z,8.93
2019-02-26T20:31:42.665Z,6.33
2019-02-26T20:36:35.204Z,11.80
2019-02-26T20:41:28.117Z,12.03
2019-02-26T20:46:24.890Z,37.07
2019-02-26T20:51:14.533Z,40.43
2019-02-26T20:56:10.880Z,25.83
2019-02-26T21:01:03.196Z,23.53
2019-02-26T21:05:56.037Z,20.63
2019-02-26T21:10:48.737Z,18.83
2019-02-26T21:15:41.438Z,20.47
2019-02-26T21:20:33.539Z,16.10
2019-02-26T21:25:26.123Z,16.60
2019-02-26T21:30:20.177Z,16.00
2019-02-26T21:35:12.874Z,13.37
2019-02-26T21:40:08.474Z,8.97
2019-02-26T21:45:01.230Z,9.70
2019-02-26T21:49:53.532Z,8.67
2019-02-26T21:54:46.134Z,45.37
2019-02-26T21:59:38.733Z,19.67
2019-02-26T22:04:31.873Z,14.70
2019-02-26T22:09:25.258Z,22.63
2019-02-26T22:14:17.462Z,15.97
2019-02-26T22:19:10.030Z,23.70
2019-02-26T22:24:04.651Z,18.03
2019-02-26T22:28:56.562Z,17.53
2019-02-26T22:33:49.052Z,22.57
2019-02-26T22:38:41.289Z,29.50
2019-02-26T22:43:34.041Z,23.87
2019-02-26T22:48:26.793Z,21.90
2019-02-26T22:53:19.178Z,20.33
2019-02-26T22:58:11.608Z,20.87
2019-02-26T23:03:03.842Z,22.77
2019-02-26T23:07:56.226Z,22.27
2019-02-26T23:12:48.951Z,18.17
2019-02-26T23:17:41.477Z,20.87
2019-02-26T23:22:34.177Z,31.00
2019-02-26T23:27:26.890Z,42.23
2019-02-26T23:32:20.879Z,30.73
2019-02-26T23:37:13.273Z,25.67
2019-02-26T23:42:06.681Z,24.67
2019-02-26T23:47:01.900Z,25.20
2019-02-26T23:51:53.705Z,28.60
2019-02-26T23:56:49.847Z,24.17
